sensor_id;sensor_type;location;lat;lon;timestamp;pressure;altitude;pressure_sealevel;temperature;humidity
59043;BME280;44826;51.596;5.624;2022-08-18T00:01:39;101159.13;;;18.73;89.79
59043;BME280;44826;51.596;5.624;2022-08-18T00:04:06;101149.50;;;18.72;89.75
59043;BME280;44826;51.596;5.624;2022-08-18T00:06:31;101156.53;;;18.71;89.69
59043;BME280;44826;51.596;5.624;2022-08-18T00:09:02;101161.91;;;18.70;89.71
59043;BME280;44826;51.596;5.624;2022-08-18T00:11:30;101161.06;;;18.69;89.98
59043;BME280;44826;51.596;5.624;2022-08-18T00:13:56;101157.69;;;18.67;89.76
59043;BME280;44826;51.596;5.624;2022-08-18T00:16:21;101163.78;;;18.68;89.92
59043;BME280;44826;51.596;5.624;2022-08-18T00:18:47;101167.28;;;18.68;89.48
59043;BME280;44826;51.596;5.624;2022-08-18T00:21:12;101169.81;;;18.70;89.33
59043;BME280;44826;51.596;5.624;2022-08-18T00:23:38;101164.53;;;18.70;89.75
59043;BME280;44826;51.596;5.624;2022-08-18T00:26:03;101174.16;;;18.71;89.34
59043;BME280;44826;51.596;5.624;2022-08-18T00:28:29;101167.97;;;18.72;89.74
59043;BME280;44826;51.596;5.624;2022-08-18T00:30:54;101174.00;;;18.74;89.44
59043;BME280;44826;51.596;5.624;2022-08-18T00:33:20;101168.72;;;18.74;89.76
59043;BME280;44826;51.596;5.624;2022-08-18T00:35:45;101169.56;;;18.74;89.50
59043;BME280;44826;51.596;5.624;2022-08-18T00:38:10;101173.91;;;18.75;89.52
59043;BME280;44826;51.596;5.624;2022-08-18T00:40:47;101179.16;;;18.75;89.86
59043;BME280;44826;51.596;5.624;2022-08-18T00:43:17;101185.38;;;18.74;90.01
59043;BME280;44826;51.596;5.624;2022-08-18T00:45:44;101191.69;;;18.72;89.21
59043;BME280;44826;51.596;5.624;2022-08-18T00:48:10;101183.94;;;18.69;89.23
59043;BME280;44826;51.596;5.624;2022-08-18T00:50:47;101190.13;;;18.68;89.13
59043;BME280;44826;51.596;5.624;2022-08-18T00:53:22;101196.50;;;18.63;89.21
59043;BME280;44826;51.596;5.624;2022-08-18T00:55:50;101194.78;;;18.62;89.27
59043;BME280;44826;51.596;5.624;2022-08-18T00:58:38;101194.88;;;18.61;89.52
59043;BME280;44826;51.596;5.624;2022-08-18T01:01:06;101195.81;;;18.60;89.35
59043;BME280;44826;51.596;5.624;2022-08-18T01:03:34;101196.75;;;18.59;89.89
59043;BME280;44826;51.596;5.624;2022-08-18T01:06:13;101190.66;;;18.58;89.77
59043;BME280;44826;51.596;5.624;2022-08-18T01:08:40;101189.78;;;18.58;89.37
59043;BME280;44826;51.596;5.624;2022-08-18T01:11:06;101188.16;;;18.55;89.33
59043;BME280;44826;51.596;5.624;2022-08-18T01:13:32;101190.13;;;18.52;89.36
59043;BME280;44826;51.596;5.624;2022-08-18T01:16:00;101185.94;;;18.47;89.59
59043;BME280;44826;51.596;5.624;2022-08-18T01:18:48;101186.88;;;18.46;89.54
59043;BME280;44826;51.596;5.624;2022-08-18T01:21:35;101185.34;;;18.42;89.14
59043;BME280;44826;51.596;5.624;2022-08-18T01:24:17;101181.88;;;18.42;89.02
59043;BME280;44826;51.596;5.624;2022-08-18T01:26:44;101181.09;;;18.40;88.85
59043;BME280;44826;51.596;5.624;2022-08-18T01:29:18;101183.78;;;18.38;88.95
59043;BME280;44826;51.596;5.624;2022-08-18T01:31:48;101190.91;;;18.36;88.31
59043;BME280;44826;51.596;5.624;2022-08-18T01:34:20;101185.84;;;18.33;88.44
59043;BME280;44826;51.596;5.624;2022-08-18T01:36:47;101189.41;;;18.32;88.76
59043;BME280;44826;51.596;5.624;2022-08-18T01:39:16;101173.59;;;18.32;88.43
59043;BME280;44826;51.596;5.624;2022-08-18T01:41:42;101184.97;;;18.32;88.48
59043;BME280;44826;51.596;5.624;2022-08-18T01:44:07;101179.88;;;18.29;88.22
59043;BME280;44826;51.596;5.624;2022-08-18T01:46:37;101182.50;;;18.29;88.70
59043;BME280;44826;51.596;5.624;2022-08-18T01:49:03;101187.84;;;18.28;88.70
59043;BME280;44826;51.596;5.624;2022-08-18T01:51:30;101188.69;;;18.28;88.69
59043;BME280;44826;51.596;5.624;2022-08-18T01:53:56;101194.81;;;18.29;89.08
59043;BME280;44826;51.596;5.624;2022-08-18T01:56:23;101193.91;;;18.30;88.96
59043;BME280;44826;51.596;5.624;2022-08-18T01:58:51;101185.13;;;18.29;88.92
59043;BME280;44826;51.596;5.624;2022-08-18T02:01:16;101176.28;;;18.30;89.17
59043;BME280;44826;51.596;5.624;2022-08-18T02:03:46;101178.94;;;18.30;89.28
59043;BME280;44826;51.596;5.624;2022-08-18T02:06:14;101179.56;;;18.35;87.36
59043;BME280;44826;51.596;5.624;2022-08-18T02:08:41;101179.72;;;18.32;88.32
59043;BME280;44826;51.596;5.624;2022-08-18T02:11:06;101171.03;;;18.30;88.46
59043;BME280;44826;51.596;5.624;2022-08-18T02:13:32;101170.19;;;18.30;88.52
59043;BME280;44826;51.596;5.624;2022-08-18T02:15:59;101172.16;;;18.26;88.67
59043;BME280;44826;51.596;5.624;2022-08-18T02:18:29;101176.66;;;18.24;88.45
59043;BME280;44826;51.596;5.624;2022-08-18T02:20:56;101185.53;;;18.22;88.37
59043;BME280;44826;51.596;5.624;2022-08-18T02:23:23;101183.09;;;18.18;88.82
59043;BME280;44826;51.596;5.624;2022-08-18T02:25:49;101182.22;;;18.18;88.70
59043;BME280;44826;51.596;5.624;2022-08-18T02:28:14;101189.34;;;18.16;88.46
59043;BME280;44826;51.596;5.624;2022-08-18T02:30:40;101185.09;;;18.13;88.70
59043;BME280;44826;51.596;5.624;2022-08-18T02:33:08;101190.38;;;18.13;88.50
59043;BME280;44826;51.596;5.624;2022-08-18T02:35:34;101181.69;;;18.11;88.44
59043;BME280;44826;51.596;5.624;2022-08-18T02:38:01;101180.00;;;18.10;88.37
59043;BME280;44826;51.596;5.624;2022-08-18T02:40:27;101187.97;;;18.09;88.40
59043;BME280;44826;51.596;5.624;2022-08-18T02:42:52;101188.13;;;18.05;88.60
59043;BME280;44826;51.596;5.624;2022-08-18T02:45:18;101189.06;;;18.04;88.61
59043;BME280;44826;51.596;5.624;2022-08-18T02:47:44;101196.19;;;18.02;88.59
59043;BME280;44826;51.596;5.624;2022-08-18T02:50:15;101202.06;;;18.08;87.51
59043;BME280;44826;51.596;5.624;2022-08-18T02:52:40;101196.19;;;18.02;88.55
59043;BME280;44826;51.596;5.624;2022-08-18T02:55:06;101200.69;;;18.00;88.49
59043;BME280;44826;51.596;5.624;2022-08-18T02:57:32;101206.06;;;17.97;88.52
59043;BME280;44826;51.596;5.624;2022-08-18T02:59:58;101205.38;;;17.94;88.55
59043;BME280;44826;51.596;5.624;2022-08-18T03:02:24;101208.94;;;17.93;88.36
59043;BME280;44826;51.596;5.624;2022-08-18T03:04:49;101199.34;;;17.92;88.63
59043;BME280;44826;51.596;5.624;2022-08-18T03:07:15;101207.31;;;17.90;88.61
59043;BME280;44826;51.596;5.624;2022-08-18T03:09:41;101201.28;;;17.88;88.53
59043;BME280;44826;51.596;5.624;2022-08-18T03:12:08;101208.41;;;17.86;88.21
59043;BME280;44826;51.596;5.624;2022-08-18T03:14:35;101198.03;;;17.83;88.67
59043;BME280;44826;51.596;5.624;2022-08-18T03:17:03;101205.13;;;17.81;88.96
59043;BME280;44826;51.596;5.624;2022-08-18T03:19:29;101201.72;;;17.79;87.96
59043;BME280;44826;51.596;5.624;2022-08-18T03:21:57;101203.59;;;17.77;88.45
59043;BME280;44826;51.596;5.624;2022-08-18T03:24:24;101201.91;;;17.75;88.09
59043;BME280;44826;51.596;5.624;2022-08-18T03:26:51;101194.94;;;17.74;88.80
59043;BME280;44826;51.596;5.624;2022-08-18T03:29:16;101200.19;;;17.74;88.59
59043;BME280;44826;51.596;5.624;2022-08-18T03:31:42;101200.25;;;17.73;88.75
59043;BME280;44826;51.596;5.624;2022-08-18T03:34:08;101203.81;;;17.72;88.57
59043;BME280;44826;51.596;5.624;2022-08-18T03:36:35;101201.28;;;17.70;88.83
59043;BME280;44826;51.596;5.624;2022-08-18T03:39:04;101204.91;;;17.68;88.82
59043;BME280;44826;51.596;5.624;2022-08-18T03:41:29;101205.75;;;17.68;88.70
59043;BME280;44826;51.596;5.624;2022-08-18T03:43:55;101212.88;;;17.66;88.96
59043;BME280;44826;51.596;5.624;2022-08-18T03:46:22;101220.00;;;17.64;88.29
59043;BME280;44826;51.596;5.624;2022-08-18T03:48:48;101214.88;;;17.61;87.95
59043;BME280;44826;51.596;5.624;2022-08-18T03:51:22;101207.06;;;17.59;88.14
59043;BME280;44826;51.596;5.624;2022-08-18T03:53:54;101204.53;;;17.58;88.10
59043;BME280;44826;51.596;5.624;2022-08-18T03:56:23;101209.94;;;17.55;88.40
59043;BME280;44826;51.596;5.624;2022-08-18T03:58:57;101205.50;;;17.55;88.76
59043;BME280;44826;51.596;5.624;2022-08-18T04:01:26;101200.25;;;17.55;88.97
59043;BME280;44826;51.596;5.624;2022-08-18T04:03:54;101190.59;;;17.56;89.03
59043;BME280;44826;51.596;5.624;2022-08-18T04:06:26;101197.56;;;17.57;89.36
59043;BME280;44826;51.596;5.624;2022-08-18T04:08:53;101195.72;;;17.59;89.27
59043;BME280;44826;51.596;5.624;2022-08-18T04:11:19;101198.25;;;17.60;89.56
59043;BME280;44826;51.596;5.624;2022-08-18T04:13:45;101199.09;;;17.61;89.67
59043;BME280;44826;51.596;5.624;2022-08-18T04:16:10;101200.75;;;17.64;89.70
59043;BME280;44826;51.596;5.624;2022-08-18T04:18:36;101206.84;;;17.64;89.46
59043;BME280;44826;51.596;5.624;2022-08-18T04:21:04;101205.06;;;17.65;89.44
59043;BME280;44826;51.596;5.624;2022-08-18T04:23:32;101210.25;;;17.66;89.13
59043;BME280;44826;51.596;5.624;2022-08-18T04:25:58;101205.91;;;17.65;89.26
59043;BME280;44826;51.596;5.624;2022-08-18T04:28:25;101207.63;;;17.66;89.35
59043;BME280;44826;51.596;5.624;2022-08-18T04:30:51;101205.06;;;17.65;89.17
59043;BME280;44826;51.596;5.624;2022-08-18T04:33:16;101199.88;;;17.63;89.26
59043;BME280;44826;51.596;5.624;2022-08-18T04:35:42;101200.78;;;17.62;89.49
59043;BME280;44826;51.596;5.624;2022-08-18T04:38:08;101205.22;;;17.62;89.24
59043;BME280;44826;51.596;5.624;2022-08-18T04:40:34;101204.34;;;17.61;89.79
59043;BME280;44826;51.596;5.624;2022-08-18T04:43:00;101205.28;;;17.60;89.89
59043;BME280;44826;51.596;5.624;2022-08-18T04:45:29;101204.44;;;17.59;89.85
59043;BME280;44826;51.596;5.624;2022-08-18T04:47:54;101215.81;;;17.60;89.87
59043;BME280;44826;51.596;5.624;2022-08-18T04:50:20;101210.72;;;17.57;89.78
59043;BME280;44826;51.596;5.624;2022-08-18T04:52:45;101210.72;;;17.57;89.92
59043;BME280;44826;51.596;5.624;2022-08-18T04:55:29;101209.94;;;17.55;90.11
59043;BME280;44826;51.596;5.624;2022-08-18T04:57:55;101216.97;;;17.54;90.26
59043;BME280;44826;51.596;5.624;2022-08-18T05:00:22;101221.28;;;17.55;90.33
59043;BME280;44826;51.596;5.624;2022-08-18T05:02:47;101223.09;;;17.55;90.30
59043;BME280;44826;51.596;5.624;2022-08-18T05:05:12;101230.06;;;17.56;90.54
59043;BME280;44826;51.596;5.624;2022-08-18T05:07:42;101229.97;;;17.57;90.36
59043;BME280;44826;51.596;5.624;2022-08-18T05:10:09;101228.22;;;17.58;90.51
59043;BME280;44826;51.596;5.624;2022-08-18T05:12:36;101225.50;;;17.59;90.38
59043;BME280;44826;51.596;5.624;2022-08-18T05:15:01;101224.66;;;17.59;90.56
59043;BME280;44826;51.596;5.624;2022-08-18T05:17:27;101234.22;;;17.60;90.70
59043;BME280;44826;51.596;5.624;2022-08-18T05:19:52;101229.97;;;17.57;90.51
59043;BME280;44826;51.596;5.624;2022-08-18T05:22:18;101226.56;;;17.55;90.48
59043;BME280;44826;51.596;5.624;2022-08-18T05:24:45;101227.56;;;17.53;90.83
59043;BME280;44826;51.596;5.624;2022-08-18T05:27:11;101230.34;;;17.50;90.69
59043;BME280;44826;51.596;5.624;2022-08-18T05:29:37;101233.84;;;17.50;91.29
59043;BME280;44826;51.596;5.624;2022-08-18T05:32:03;101230.19;;;17.53;91.09
59043;BME280;44826;51.596;5.624;2022-08-18T05:34:32;101234.53;;;17.54;91.09
59043;BME280;44826;51.596;5.624;2022-08-18T05:37:19;101244.91;;;17.57;90.98
59043;BME280;44826;51.596;5.624;2022-08-18T05:40:00;101243.91;;;17.59;90.82
59043;BME280;44826;51.596;5.624;2022-08-18T05:42:29;101246.44;;;17.61;90.97
59043;BME280;44826;51.596;5.624;2022-08-18T05:44:55;101242.88;;;17.62;90.80
59043;BME280;44826;51.596;5.624;2022-08-18T05:47:31;101253.28;;;17.65;90.98
59043;BME280;44826;51.596;5.624;2022-08-18T05:50:03;101246.06;;;17.69;90.60
59043;BME280;44826;51.596;5.624;2022-08-18T05:55:42;101245.91;;;17.72;90.70
59043;BME280;44826;51.596;5.624;2022-08-18T05:58:38;101248.41;;;17.75;90.48
59043;BME280;44826;51.596;5.624;2022-08-18T06:01:12;101243.00;;;17.78;90.58
59043;BME280;44826;51.596;5.624;2022-08-18T06:03:44;101241.97;;;17.81;90.16
59043;BME280;44826;51.596;5.624;2022-08-18T06:06:17;101248.81;;;17.85;89.73
59043;BME280;44826;51.596;5.624;2022-08-18T06:09:33;101248.81;;;17.85;90.08
59043;BME280;44826;51.596;5.624;2022-08-18T06:11:33;101241.69;;;17.87;89.87
59043;BME280;44826;51.596;5.624;2022-08-18T06:13:58;101243.41;;;17.88;89.99
59043;BME280;44826;51.596;5.624;2022-08-18T06:16:33;101246.81;;;17.90;89.83
59043;BME280;44826;51.596;5.624;2022-08-18T06:19:37;101252.06;;;17.90;89.81
59043;BME280;44826;51.596;5.624;2022-08-18T06:22:25;101259.03;;;17.91;89.49
59043;BME280;44826;51.596;5.624;2022-08-18T06:25:15;101260.66;;;17.94;89.83
59043;BME280;44826;51.596;5.624;2022-08-18T06:28:07;101263.13;;;17.97;89.27
59043;BME280;44826;51.596;5.624;2022-08-18T06:30:46;101258.69;;;17.99;89.57
59043;BME280;44826;51.596;5.624;2022-08-18T06:36:03;101265.19;;;18.09;89.19
59043;BME280;44826;51.596;5.624;2022-08-18T06:41:38;101270.19;;;18.14;89.97
59043;BME280;44826;51.596;5.624;2022-08-18T06:44:33;101270.72;;;18.20;89.00
59043;BME280;44826;51.596;5.624;2022-08-18T06:52:21;101275.94;;;18.40;89.41
59043;BME280;44826;51.596;5.624;2022-08-18T06:54:47;101273.81;;;18.46;89.09
59043;BME280;44826;51.596;5.624;2022-08-18T06:57:54;101271.72;;;18.53;88.49
59043;BME280;44826;51.596;5.624;2022-08-18T07:00:24;101277.50;;;18.60;88.69
59043;BME280;44826;51.596;5.624;2022-08-18T07:02:54;101279.06;;;18.64;88.39
59043;BME280;44826;51.596;5.624;2022-08-18T07:05:30;101275.41;;;18.66;88.18
59043;BME280;44826;51.596;5.624;2022-08-18T07:08:08;101283.91;;;18.72;87.89
59043;BME280;44826;51.596;5.624;2022-08-18T07:10:38;101289.81;;;18.77;88.75
59043;BME280;44826;51.596;5.624;2022-08-18T07:13:26;101292.03;;;18.85;88.28
59043;BME280;44826;51.596;5.624;2022-08-18T07:15:54;101290.22;;;18.85;88.09
59043;BME280;44826;51.596;5.624;2022-08-18T07:18:26;101290.16;;;18.87;88.53
59043;BME280;44826;51.596;5.624;2022-08-18T07:21:00;101287.28;;;18.91;88.07
59043;BME280;44826;51.596;5.624;2022-08-18T07:23:30;101277.44;;;18.95;87.59
59043;BME280;44826;51.596;5.624;2022-08-18T07:26:11;101277.78;;;19.05;87.92
59043;BME280;44826;51.596;5.624;2022-08-18T07:31:14;101281.38;;;19.20;86.89
59043;BME280;44826;51.596;5.624;2022-08-18T07:33:42;101280.34;;;19.22;85.78
59043;BME280;44826;51.596;5.624;2022-08-18T07:36:12;101283.59;;;19.28;85.29
59043;BME280;44826;51.596;5.624;2022-08-18T07:38:45;101280.69;;;19.32;84.68
59043;BME280;44826;51.596;5.624;2022-08-18T07:41:25;101281.19;;;19.39;84.53
59043;BME280;44826;51.596;5.624;2022-08-18T07:44:14;101288.69;;;19.47;83.78
59043;BME280;44826;51.596;5.624;2022-08-18T07:46:49;101290.50;;;19.46;82.96
59043;BME280;44826;51.596;5.624;2022-08-18T07:49:19;101299.91;;;19.50;83.03
59043;BME280;44826;51.596;5.624;2022-08-18T07:51:49;101292.50;;;19.57;83.70
59043;BME280;44826;51.596;5.624;2022-08-18T07:54:26;101287.66;;;19.65;82.10
59043;BME280;44826;51.596;5.624;2022-08-18T08:02:49;101285.22;;;19.93;81.67
59043;BME280;44826;51.596;5.624;2022-08-18T08:05:18;101287.50;;;19.99;79.89
59043;BME280;44826;51.596;5.624;2022-08-18T08:07:55;101288.09;;;20.04;80.50
59043;BME280;44826;51.596;5.624;2022-08-18T08:10:30;101294.13;;;20.06;79.36
59043;BME280;44826;51.596;5.624;2022-08-18T08:18:36;101288.97;;;20.05;79.90
59043;BME280;44826;51.596;5.624;2022-08-18T08:21:09;101290.91;;;20.01;79.11
59043;BME280;44826;51.596;5.624;2022-08-18T08:26:15;101289.78;;;20.05;80.77
59043;BME280;44826;51.596;5.624;2022-08-18T08:34:28;101297.97;;;20.31;78.30
59043;BME280;44826;51.596;5.624;2022-08-18T08:37:08;101301.16;;;20.36;78.13
59043;BME280;44826;51.596;5.624;2022-08-18T08:39:43;101295.81;;;20.38;77.27
59043;BME280;44826;51.596;5.624;2022-08-18T08:42:19;101294.78;;;20.40;77.10
59043;BME280;44826;51.596;5.624;2022-08-18T08:44:52;101297.31;;;20.42;77.30
59043;BME280;44826;51.596;5.624;2022-08-18T08:47:27;101299.88;;;20.43;77.93
59043;BME280;44826;51.596;5.624;2022-08-18T08:49:57;101303.75;;;20.38;76.12
59043;BME280;44826;51.596;5.624;2022-08-18T08:52:51;101310.16;;;20.34;77.46
59043;BME280;44826;51.596;5.624;2022-08-18T08:55:23;101305.69;;;20.34;77.02
59043;BME280;44826;51.596;5.624;2022-08-18T09:00:41;101314.34;;;20.52;77.88
59043;BME280;44826;51.596;5.624;2022-08-18T09:06:49;101313.50;;;20.66;76.97
59043;BME280;44826;51.596;5.624;2022-08-18T09:15:15;101306.72;;;20.76;76.38
59043;BME280;44826;51.596;5.624;2022-08-18T09:17:49;101312.78;;;20.79;76.04
59043;BME280;44826;51.596;5.624;2022-08-18T09:20:27;101311.06;;;20.77;74.12
59043;BME280;44826;51.596;5.624;2022-08-18T09:23:12;101315.69;;;20.88;76.55
59043;BME280;44826;51.596;5.624;2022-08-18T09:25:49;101319.94;;;20.91;74.56
59043;BME280;44826;51.596;5.624;2022-08-18T09:28:43;101311.06;;;20.92;75.22
59043;BME280;44826;51.596;5.624;2022-08-18T09:36:13;101313.97;;;21.02;72.33
59043;BME280;44826;51.596;5.624;2022-08-18T09:38:51;101307.38;;;21.09;73.56
59043;BME280;44826;51.596;5.624;2022-08-18T09:41:53;101296.19;;;21.18;74.60
59043;BME280;44826;51.596;5.624;2022-08-18T09:52:52;101307.84;;;21.16;72.04
59043;BME280;44826;51.596;5.624;2022-08-18T09:57:43;101307.25;;;21.25;72.25
59043;BME280;44826;51.596;5.624;2022-08-18T10:10:50;101309.66;;;21.43;71.08
59043;BME280;44826;51.596;5.624;2022-08-18T10:16:08;101300.38;;;21.50;71.76
59043;BME280;44826;51.596;5.624;2022-08-18T10:21:24;101297.13;;;21.59;68.36
59043;BME280;44826;51.596;5.624;2022-08-18T10:31:22;101301.75;;;21.70;69.01
59043;BME280;44826;51.596;5.624;2022-08-18T10:34:04;101301.63;;;21.72;70.04
59043;BME280;44826;51.596;5.624;2022-08-18T10:36:56;101294.38;;;21.75;69.47
59043;BME280;44826;51.596;5.624;2022-08-18T10:44:35;101294.41;;;22.01;70.49
59043;BME280;44826;51.596;5.624;2022-08-18T10:47:02;101292.31;;;22.06;67.48
59043;BME280;44826;51.596;5.624;2022-08-18T10:49:30;101296.34;;;22.12;67.08
59043;BME280;44826;51.596;5.624;2022-08-18T10:57:37;101282.16;;;22.39;68.76
59043;BME280;44826;51.596;5.624;2022-08-18T11:00:11;101285.75;;;22.38;65.96
59043;BME280;44826;51.596;5.624;2022-08-18T11:03:19;101289.84;;;22.43;68.38
59043;BME280;44826;51.596;5.624;2022-08-18T11:06:00;101288.03;;;22.44;66.39
59043;BME280;44826;51.596;5.624;2022-08-18T11:08:27;101286.84;;;22.48;66.51
59043;BME280;44826;51.596;5.624;2022-08-18T11:10:52;101290.13;;;22.52;65.45
59043;BME280;44826;51.596;5.624;2022-08-18T11:18:38;101281.75;;;22.71;65.31
59043;BME280;44826;51.596;5.624;2022-08-18T11:24:10;101272.94;;;22.83;63.64
59043;BME280;44826;51.596;5.624;2022-08-18T11:26:42;101267.50;;;22.85;63.58
59043;BME280;44826;51.596;5.624;2022-08-18T11:34:41;101246.38;;;22.96;65.53
59043;BME280;44826;51.596;5.624;2022-08-18T11:37:19;101247.94;;;22.99;64.75
59043;BME280;44826;51.596;5.624;2022-08-18T11:39:50;101246.38;;;22.96;63.43
59043;BME280;44826;51.596;5.624;2022-08-18T11:42:19;101243.81;;;22.95;62.84
59043;BME280;44826;51.596;5.624;2022-08-18T11:44:53;101238.63;;;22.93;61.55
59043;BME280;44826;51.596;5.624;2022-08-18T11:47:20;101236.06;;;22.92;62.82
59043;BME280;44826;51.596;5.624;2022-08-18T11:50:09;101222.94;;;22.90;63.84
59043;BME280;44826;51.596;5.624;2022-08-18T11:52:50;101219.66;;;22.86;62.90
59043;BME280;44826;51.596;5.624;2022-08-18T11:55:39;101236.31;;;22.88;61.18
59043;BME280;44826;51.596;5.624;2022-08-18T11:58:03;101232.47;;;22.93;59.67
59043;BME280;44826;51.596;5.624;2022-08-18T12:08:27;101202.88;;;23.59;61.75
59043;BME280;44826;51.596;5.624;2022-08-18T12:11:02;101214.03;;;23.75;61.67
59043;BME280;44826;51.596;5.624;2022-08-18T12:13:28;101222.50;;;23.80;57.29
59043;BME280;44826;51.596;5.624;2022-08-18T12:16:12;101225.06;;;23.82;59.68
59043;BME280;44826;51.596;5.624;2022-08-18T12:18:38;101227.44;;;23.74;56.52
59043;BME280;44826;51.596;5.624;2022-08-18T12:21:04;101227.28;;;23.64;57.17
59043;BME280;44826;51.596;5.624;2022-08-18T12:23:32;101217.13;;;23.58;57.63
59043;BME280;44826;51.596;5.624;2022-08-18T12:25:58;101217.38;;;23.55;56.75
59043;BME280;44826;51.596;5.624;2022-08-18T12:28:23;101210.59;;;23.51;56.93
59043;BME280;44826;51.596;5.624;2022-08-18T12:30:50;101212.50;;;23.48;58.28
59043;BME280;44826;51.596;5.624;2022-08-18T12:33:16;101209.88;;;23.48;59.42
59043;BME280;44826;51.596;5.624;2022-08-18T12:35:41;101210.59;;;23.51;60.55
59043;BME280;44826;51.596;5.624;2022-08-18T12:38:08;101214.00;;;23.53;58.10
59043;BME280;44826;51.596;5.624;2022-08-18T12:40:33;101228.00;;;23.55;57.33
59043;BME280;44826;51.596;5.624;2022-08-18T12:42:59;101223.88;;;23.51;56.58
59043;BME280;44826;51.596;5.624;2022-08-18T12:45:26;101224.13;;;23.59;56.99
59043;BME280;44826;51.596;5.624;2022-08-18T12:47:51;101222.38;;;23.71;57.59
59043;BME280;44826;51.596;5.624;2022-08-18T12:50:16;101224.81;;;23.85;59.78
59043;BME280;44826;51.596;5.624;2022-08-18T12:52:42;101224.22;;;23.93;55.10
59043;BME280;44826;51.596;5.624;2022-08-18T12:55:07;101222.72;;;24.02;53.33
59043;BME280;44826;51.596;5.624;2022-08-18T12:57:34;101226.47;;;24.10;53.03
59043;BME280;44826;51.596;5.624;2022-08-18T12:59:59;101234.94;;;24.16;52.85
59043;BME280;44826;51.596;5.624;2022-08-18T13:02:25;101235.31;;;24.22;54.12
59043;BME280;44826;51.596;5.624;2022-08-18T13:04:50;101243.78;;;24.28;54.01
59043;BME280;44826;51.596;5.624;2022-08-18T13:07:15;101249.69;;;24.31;53.01
59043;BME280;44826;51.596;5.624;2022-08-18T13:09:41;101257.91;;;24.28;53.64
59043;BME280;44826;51.596;5.624;2022-08-18T13:12:08;101264.78;;;24.19;52.87
59043;BME280;44826;51.596;5.624;2022-08-18T13:14:34;101271.66;;;24.10;54.12
59043;BME280;44826;51.596;5.624;2022-08-18T13:17:00;101265.72;;;24.07;53.90
59043;BME280;44826;51.596;5.624;2022-08-18T13:19:25;101260.41;;;24.07;54.64
59043;BME280;44826;51.596;5.624;2022-08-18T13:21:50;101268.25;;;24.08;54.48
59043;BME280;44826;51.596;5.624;2022-08-18T13:24:16;101268.75;;;24.14;54.65
59043;BME280;44826;51.596;5.624;2022-08-18T13:26:44;101266.97;;;24.14;54.18
59043;BME280;44826;51.596;5.624;2022-08-18T13:29:10;101260.78;;;24.14;54.81
59043;BME280;44826;51.596;5.624;2022-08-18T13:31:35;101258.63;;;24.19;55.33
59043;BME280;44826;51.596;5.624;2022-08-18T13:34:02;101265.66;;;24.20;54.61
59043;BME280;44826;51.596;5.624;2022-08-18T13:36:29;101267.44;;;24.19;55.31
59043;BME280;44826;51.596;5.624;2022-08-18T13:39:15;101269.13;;;24.20;55.31
59043;BME280;44826;51.596;5.624;2022-08-18T13:41:42;101261.78;;;24.24;54.47
59043;BME280;44826;51.596;5.624;2022-08-18T13:44:08;101252.84;;;24.25;54.12
59043;BME280;44826;51.596;5.624;2022-08-18T13:46:34;101242.81;;;24.29;54.92
59043;BME280;44826;51.596;5.624;2022-08-18T13:49:13;101229.66;;;24.38;54.80
59043;BME280;44826;51.596;5.624;2022-08-18T13:51:40;101235.09;;;24.48;54.60
59043;BME280;44826;51.596;5.624;2022-08-18T13:54:07;101229.03;;;24.58;54.09
59043;BME280;44826;51.596;5.624;2022-08-18T13:56:33;101226.97;;;24.61;53.34
59043;BME280;44826;51.596;5.624;2022-08-18T13:58:59;101226.72;;;24.64;53.23
59043;BME280;44826;51.596;5.624;2022-08-18T14:01:26;101224.78;;;24.66;53.39
59043;BME280;44826;51.596;5.624;2022-08-18T14:03:51;101225.53;;;24.68;52.67
59043;BME280;44826;51.596;5.624;2022-08-18T14:06:17;101228.41;;;24.65;53.15
59043;BME280;44826;51.596;5.624;2022-08-18T14:08:45;101229.38;;;24.64;53.11
59043;BME280;44826;51.596;5.624;2022-08-18T14:11:11;101227.81;;;24.62;51.97
59043;BME280;44826;51.596;5.624;2022-08-18T14:13:36;101227.81;;;24.62;53.04
59043;BME280;44826;51.596;5.624;2022-08-18T14:16:01;101226.13;;;24.61;53.52
59043;BME280;44826;51.596;5.624;2022-08-18T14:18:27;101215.13;;;24.54;53.17
59043;BME280;44826;51.596;5.624;2022-08-18T14:20:54;101206.19;;;24.55;53.98
59043;BME280;44826;51.596;5.624;2022-08-18T14:23:37;101197.97;;;24.58;52.70
59043;BME280;44826;51.596;5.624;2022-08-18T14:26:21;101200.84;;;24.66;54.01
59043;BME280;44826;51.596;5.624;2022-08-18T14:29:06;101201.13;;;24.75;53.92
59043;BME280;44826;51.596;5.624;2022-08-18T14:31:31;101197.22;;;24.79;53.18
59043;BME280;44826;51.596;5.624;2022-08-18T14:33:57;101191.41;;;24.85;53.29
59043;BME280;44826;51.596;5.624;2022-08-18T14:36:22;101184.41;;;24.84;51.60
59043;BME280;44826;51.596;5.624;2022-08-18T14:38:49;101177.97;;;24.87;52.42
59043;BME280;44826;51.596;5.624;2022-08-18T14:41:14;101179.44;;;24.91;52.88
59043;BME280;44826;51.596;5.624;2022-08-18T14:43:39;101175.41;;;24.96;52.79
59043;BME280;44826;51.596;5.624;2022-08-18T14:46:05;101185.44;;;25.04;52.99
59043;BME280;44826;51.596;5.624;2022-08-18T14:48:30;101193.31;;;25.06;50.74
59043;BME280;44826;51.596;5.624;2022-08-18T14:50:57;101190.41;;;25.09;52.08
59043;BME280;44826;51.596;5.624;2022-08-18T14:53:26;101196.66;;;25.19;51.97
59043;BME280;44826;51.596;5.624;2022-08-18T14:55:53;101191.78;;;25.24;51.78
59043;BME280;44826;51.596;5.624;2022-08-18T14:58:21;101183.66;;;25.26;51.36
59043;BME280;44826;51.596;5.624;2022-08-18T15:00:52;101182.56;;;25.28;50.88
59043;BME280;44826;51.596;5.624;2022-08-18T15:03:18;101188.59;;;25.42;51.34
59043;BME280;44826;51.596;5.624;2022-08-18T15:05:43;101184.19;;;25.52;48.74
59043;BME280;44826;51.596;5.624;2022-08-18T15:08:08;101189.56;;;25.62;48.89